createdAt,value
2023-02-16T00:00:25.278Z,1029.33
2023-02-16T00:00:55.436Z,1029.33
2023-02-16T00:01:28.148Z,1029.22
2023-02-16T00:01:59.518Z,1029.22
2023-02-16T00:02:33.270Z,1029.12
2023-02-16T00:03:03.460Z,1029.12
2023-02-16T00:03:36.335Z,1029.22
2023-02-16T00:04:07.351Z,1029.22
2023-02-16T00:04:40.476Z,1029.43
2023-02-16T00:05:11.733Z,1029.43
2023-02-16T00:05:44.375Z,1029.12
2023-02-16T00:06:15.174Z,1029.12
2023-02-16T00:06:48.149Z,1029.02
2023-02-16T00:07:19.381Z,1029.02
2023-02-16T00:07:52.309Z,1029.22
2023-02-16T00:08:23.314Z,1029.22
2023-02-16T00:08:56.289Z,1029.22
2023-02-16T00:09:27.410Z,1029.33
2023-02-16T00:10:00.143Z,1029.33
2023-02-16T00:10:31.678Z,1029.22
2023-02-16T00:11:04.571Z,1029.22
2023-02-16T00:11:35.277Z,1029.12
2023-02-16T00:12:08.186Z,1029.12
2023-02-16T00:12:39.416Z,1029.12
2023-02-16T00:13:12.190Z,1029.12
2023-02-16T00:13:43.440Z,1029.22
2023-02-16T00:14:16.157Z,1029.22
2023-02-16T00:14:47.382Z,1029.12
2023-02-16T00:15:21.313Z,1029.12
2023-02-16T00:15:51.542Z,1029.12
2023-02-16T00:16:24.113Z,1029.33
2023-02-16T00:16:55.246Z,1029.33
2023-02-16T00:17:28.265Z,1029.12
2023-02-16T00:17:59.457Z,1029.12
2023-02-16T00:18:32.258Z,1029.22
2023-02-16T00:19:03.342Z,1029.22
2023-02-16T00:19:36.415Z,1029.12
2023-02-16T00:20:07.697Z,1029.12
2023-02-16T00:20:40.003Z,1029.43
2023-02-16T00:21:11.289Z,1029.43
2023-02-16T00:21:44.229Z,1029.12
2023-02-16T00:22:15.534Z,1029.12
2023-02-16T00:22:48.177Z,1029.33
2023-02-16T00:23:19.340Z,1029.33
2023-02-16T00:23:52.235Z,1029.22
2023-02-16T00:24:23.487Z,1029.12
2023-02-16T00:24:56.075Z,1029.12
2023-02-16T00:25:27.754Z,1029.12
2023-02-16T00:26:00.190Z,1029.12
2023-02-16T00:26:31.395Z,1028.92
2023-02-16T00:26:47.451Z,1028.92
2023-02-16T00:27:19.409Z,1028.92
2023-02-16T00:27:51.434Z,1029.12
2023-02-16T00:28:24.200Z,1029.12
2023-02-16T00:28:55.630Z,1029.12
2023-02-16T00:29:28.162Z,1029.12
2023-02-16T00:29:59.484Z,1029.12
2023-02-16T00:30:34.400Z,1028.92
2023-02-16T00:31:03.704Z,1028.92
2023-02-16T00:31:36.633Z,1029.22
2023-02-16T00:32:07.613Z,1029.22
2023-02-16T00:32:40.375Z,1029.12
2023-02-16T00:33:11.394Z,1029.12
2023-02-16T00:33:44.200Z,1028.92
2023-02-16T00:34:15.340Z,1028.92
2023-02-16T00:34:48.087Z,1029.02
2023-02-16T00:35:19.622Z,1029.02
2023-02-16T00:35:52.431Z,1028.82
2023-02-16T00:36:23.484Z,1029.02
2023-02-16T00:36:57.983Z,1029.02
2023-02-16T00:37:27.506Z,1029.02
2023-02-16T00:38:00.306Z,1029.02
2023-02-16T00:38:31.301Z,1028.92
2023-02-16T00:39:04.248Z,1028.92
2023-02-16T00:39:35.499Z,1028.82
2023-02-16T00:40:08.391Z,1028.82
2023-02-16T00:40:39.398Z,1028.72
2023-02-16T00:41:12.208Z,1028.72
2023-02-16T00:41:43.252Z,1029.22
2023-02-16T00:42:16.155Z,1029.22
2023-02-16T00:42:57.191Z,1029.02
2023-02-16T00:43:21.055Z,1029.02
2023-02-16T00:43:51.269Z,1029.02
2023-02-16T00:44:24.126Z,1028.92
2023-02-16T00:44:55.401Z,1028.92
2023-02-16T00:45:29.466Z,1029.12
2023-02-16T00:45:59.530Z,1029.12
2023-02-16T00:46:32.308Z,1029.12
2023-02-16T00:47:03.407Z,1029.12
2023-02-16T00:47:37.225Z,1029.12
2023-02-16T00:48:07.425Z,1029.12
2023-02-16T00:48:40.325Z,1029.22
2023-02-16T00:49:11.397Z,1029.22
2023-02-16T00:49:44.083Z,1029.22
2023-02-16T00:50:15.875Z,1029.22
2023-02-16T00:50:48.015Z,1028.92
2023-02-16T00:51:25.821Z,1028.92
2023-02-16T00:51:52.117Z,1028.92
2023-02-16T00:52:23.436Z,1029.12
2023-02-16T00:52:56.212Z,1029.12
2023-02-16T00:53:27.309Z,1028.82
2023-02-16T00:54:00.178Z,1028.82
2023-02-16T00:54:32.146Z,1029.12
2023-02-16T00:55:04.431Z,1029.12
2023-02-16T00:55:35.445Z,1028.92
2023-02-16T00:56:08.247Z,1028.92
2023-02-16T00:56:39.347Z,1029.02
2023-02-16T00:57:12.341Z,1029.02
2023-02-16T00:57:43.398Z,1029.02
2023-02-16T00:58:16.341Z,1029.02
2023-02-16T00:58:47.326Z,1029.02
2023-02-16T00:59:20.314Z,1029.02
2023-02-16T00:59:51.457Z,1029.12
2023-02-16T01:00:25.580Z,1029.12
2023-02-16T01:00:55.352Z,1029.12
2023-02-16T01:01:28.299Z,1029.33
2023-02-16T01:01:59.430Z,1029.33
2023-02-16T01:02:32.286Z,1029.02
2023-02-16T01:03:03.437Z,1029.02
2023-02-16T01:03:36.294Z,1029.02
2023-02-16T01:04:07.504Z,1029.02
2023-02-16T01:04:40.147Z,1029.12
2023-02-16T01:05:11.828Z,1029.12
2023-02-16T01:05:44.132Z,1028.92
2023-02-16T01:06:15.425Z,1028.92
2023-02-16T01:06:48.409Z,1029.12
2023-02-16T01:07:19.537Z,1029.12
2023-02-16T01:07:52.247Z,1029.22
2023-02-16T01:08:23.386Z,1029.02
2023-02-16T01:08:56.313Z,1029.02
2023-02-16T01:09:27.264Z,1029.12
2023-02-16T01:10:00.113Z,1029.12
2023-02-16T01:10:31.731Z,1029.02
2023-02-16T01:11:04.563Z,1029.02
2023-02-16T01:11:35.338Z,1029.12
2023-02-16T01:12:08.198Z,1029.12
2023-02-16T01:12:39.542Z,1028.92
2023-02-16T01:13:12.567Z,1028.92
2023-02-16T01:13:43.386Z,1029.12
2023-02-16T01:14:16.165Z,1029.12
2023-02-16T01:14:47.502Z,1029.02
2023-02-16T01:15:21.284Z,1029.02
2023-02-16T01:15:51.551Z,1028.82
2023-02-16T01:16:24.221Z,1028.92
2023-02-16T01:16:55.387Z,1028.92
2023-02-16T01:17:28.281Z,1029.12
2023-02-16T01:17:59.429Z,1029.12
2023-02-16T01:18:32.079Z,1029.12
2023-02-16T01:19:03.389Z,1029.12
2023-02-16T01:19:36.394Z,1029.12
2023-02-16T01:20:07.743Z,1029.12
2023-02-16T01:20:40.234Z,1029.02
2023-02-16T01:21:11.402Z,1029.02
2023-02-16T01:21:44.261Z,1029.02
2023-02-16T01:22:15.298Z,1029.02
2023-02-16T01:22:48.304Z,1028.82
2023-02-16T01:23:19.495Z,1028.82
2023-02-16T01:23:52.494Z,1029.12
2023-02-16T01:24:23.447Z,1028.92
2023-02-16T01:24:56.433Z,1028.92
2023-02-16T01:25:27.716Z,1029.22
2023-02-16T01:26:00.230Z,1029.22
2023-02-16T01:26:31.412Z,1029.02
2023-02-16T01:27:04.410Z,1029.02
2023-02-16T01:27:35.555Z,1029.02
2023-02-16T01:28:08.250Z,1029.02
2023-02-16T01:28:39.482Z,1029.12
2023-02-16T01:29:13.083Z,1029.12
2023-02-16T01:29:43.328Z,1028.92
2023-02-16T01:30:17.206Z,1028.92
2023-02-16T01:30:47.518Z,1028.82
2023-02-16T01:31:20.585Z,1028.82
2023-02-16T01:31:51.508Z,1028.82
2023-02-16T01:32:24.434Z,1028.82
2023-02-16T01:32:55.437Z,1028.82
2023-02-16T01:33:28.168Z,1029.02
2023-02-16T01:33:59.298Z,1029.02
2023-02-16T01:34:32.296Z,1028.72
2023-02-16T01:35:03.834Z,1028.72
2023-02-16T01:35:36.213Z,1028.92
2023-02-16T01:36:07.408Z,1028.92
2023-02-16T01:36:40.287Z,1028.82
2023-02-16T01:37:11.318Z,1028.82
2023-02-16T01:37:44.302Z,1028.72
2023-02-16T01:38:18.255Z,1028.72
2023-02-16T01:38:48.120Z,1028.82
2023-02-16T01:39:19.462Z,1028.82
2023-02-16T01:39:52.268Z,1028.72
2023-02-16T01:40:23.958Z,1029.02
2023-02-16T01:40:56.096Z,1029.02
2023-02-16T01:41:27.396Z,1028.72
2023-02-16T01:42:00.397Z,1028.72
2023-02-16T01:42:31.398Z,1029.02
2023-02-16T01:43:04.294Z,1029.02
2023-02-16T01:43:35.519Z,1028.82
2023-02-16T01:44:08.148Z,1028.82
2023-02-16T01:44:39.406Z,1028.72
2023-02-16T01:45:13.251Z,1028.72
2023-02-16T01:45:43.574Z,1028.82
2023-02-16T01:46:16.204Z,1028.82
2023-02-16T01:46:47.440Z,1029.02
2023-02-16T01:47:20.296Z,1029.02
2023-02-16T01:47:51.572Z,1028.41
2023-02-16T01:48:24.209Z,1028.72
2023-02-16T01:48:55.423Z,1028.72
2023-02-16T01:49:28.266Z,1028.82
2023-02-16T01:50:00.761Z,1028.82
2023-02-16T01:50:15.835Z,1028.82
2023-02-16T01:50:47.234Z,1028.72
2023-02-16T01:51:19.293Z,1028.72
2023-02-16T01:51:52.338Z,1028.72
2023-02-16T01:52:23.581Z,1028.82
2023-02-16T01:52:56.026Z,1028.82
2023-02-16T01:53:27.440Z,1028.82
2023-02-16T01:54:00.951Z,1028.82
2023-02-16T01:54:31.535Z,1028.82
2023-02-16T01:55:04.575Z,1028.82
2023-02-16T01:55:35.526Z,1028.72
2023-02-16T01:56:08.266Z,1028.72
2023-02-16T01:56:39.474Z,1028.92
2023-02-16T01:57:12.212Z,1028.92
2023-02-16T01:57:43.543Z,1028.72
2023-02-16T01:58:16.130Z,1028.72
2023-02-16T01:58:47.488Z,1028.82
2023-02-16T01:59:21.041Z,1028.82
2023-02-16T01:59:51.457Z,1029.02
2023-02-16T02:00:25.284Z,1028.72
2023-02-16T02:00:55.504Z,1028.72
2023-02-16T02:01:28.175Z,1028.92
2023-02-16T02:01:59.406Z,1028.92
2023-02-16T02:02:15.550Z,1028.92
2023-02-16T02:02:47.431Z,1029.02
2023-02-16T02:03:19.338Z,1029.02
2023-02-16T02:03:53.123Z,1028.72
2023-02-16T02:04:23.501Z,1028.92
2023-02-16T02:04:56.093Z,1028.92
2023-02-16T02:05:27.765Z,1028.82
2023-02-16T02:06:00.193Z,1028.82
2023-02-16T02:06:31.365Z,1029.02
2023-02-16T02:07:04.429Z,1029.02
2023-02-16T02:07:35.522Z,1028.92
2023-02-16T02:08:08.412Z,1028.92
2023-02-16T02:08:39.448Z,1028.72
2023-02-16T02:09:12.303Z,1028.72
2023-02-16T02:09:43.423Z,1028.82
2023-02-16T02:10:16.686Z,1028.82
2023-02-16T02:10:47.380Z,1028.61
2023-02-16T02:11:20.278Z,1028.61
2023-02-16T02:11:51.298Z,1028.61
2023-02-16T02:12:24.272Z,1028.51
2023-02-16T02:12:55.383Z,1028.51
2023-02-16T02:13:28.268Z,1028.82
2023-02-16T02:13:59.300Z,1028.82
2023-02-16T02:14:15.591Z,1028.82
2023-02-16T02:14:47.425Z,1028.72
2023-02-16T02:15:20.479Z,1028.72
2023-02-16T02:15:51.666Z,1028.61
2023-02-16T02:16:23.394Z,1028.61
2023-02-16T02:16:56.244Z,1028.61
2023-02-16T02:17:27.485Z,1028.51
2023-02-16T02:18:00.462Z,1028.51
2023-02-16T02:18:31.448Z,1028.72
2023-02-16T02:19:04.172Z,1028.72
2023-02-16T02:19:35.491Z,1028.51
2023-02-16T02:20:08.380Z,1028.51
2023-02-16T02:20:39.424Z,1028.51
2023-02-16T02:21:12.205Z,1028.51
2023-02-16T02:21:43.540Z,1028.51
2023-02-16T02:22:16.116Z,1028.51
2023-02-16T02:22:47.448Z,1028.51
2023-02-16T02:23:20.327Z,1028.51
2023-02-16T02:23:51.437Z,1028.51
2023-02-16T02:24:24.222Z,1028.41
2023-02-16T02:24:55.523Z,1028.41
2023-02-16T02:25:28.674Z,1028.51
2023-02-16T02:25:59.349Z,1028.51
2023-02-16T02:26:32.225Z,1028.31
2023-02-16T02:27:03.446Z,1028.31
2023-02-16T02:27:38.117Z,1028.51
2023-02-16T02:28:07.475Z,1028.51
2023-02-16T02:28:40.229Z,1028.61
2023-02-16T02:29:11.528Z,1028.61
2023-02-16T02:29:45.251Z,1028.24
2023-02-16T02:30:16.495Z,1028.24
2023-02-16T02:30:48.317Z,1028.31
2023-02-16T02:31:19.350Z,1028.31
2023-02-16T02:31:52.221Z,1028.41
2023-02-16T02:32:23.449Z,1028.41
2023-02-16T02:32:56.501Z,1028.41
2023-02-16T02:33:27.402Z,1028.41
2023-02-16T02:34:00.125Z,1028.41
2023-02-16T02:34:31.445Z,1028.41
2023-02-16T02:35:04.389Z,1028.41
2023-02-16T02:35:35.430Z,1028.41
2023-02-16T02:36:08.219Z,1028.41
2023-02-16T02:36:39.543Z,1028.41
2023-02-16T02:37:12.257Z,1028.41
2023-02-16T02:37:43.390Z,1028.41
2023-02-16T02:38:16.593Z,1028.41
2023-02-16T02:38:47.405Z,1028.31
2023-02-16T02:39:20.347Z,1028.31
2023-02-16T02:39:51.495Z,1028.31
2023-02-16T02:40:24.461Z,1028.31
2023-02-16T02:40:55.745Z,1028.31
2023-02-16T02:41:28.286Z,1028.41
2023-02-16T02:41:59.520Z,1028.41
2023-02-16T02:42:32.378Z,1028.41
2023-02-16T02:43:03.385Z,1028.41
2023-02-16T02:43:36.368Z,1028.41
2023-02-16T02:44:07.717Z,1028.41
2023-02-16T02:44:40.177Z,1028.51
2023-02-16T02:45:12.409Z,1028.51
2023-02-16T02:45:44.461Z,1028.31
2023-02-16T02:46:15.524Z,1028.31
2023-02-16T02:46:48.337Z,1028.41
2023-02-16T02:47:19.481Z,1028.41
2023-02-16T02:47:52.278Z,1028.31
2023-02-16T02:48:23.418Z,1028.41
2023-02-16T02:48:56.312Z,1028.41
2023-02-16T02:49:27.563Z,1028.41
2023-02-16T02:50:00.559Z,1028.41
2023-02-16T02:50:31.431Z,1028.41
2023-02-16T02:51:04.719Z,1028.41
2023-02-16T02:51:35.242Z,1028.31
2023-02-16T02:52:10.213Z,1028.31
2023-02-16T02:52:39.502Z,1028.31
2023-02-16T02:53:13.590Z,1028.31
2023-02-16T02:53:43.414Z,1028.31
2023-02-16T02:54:16.374Z,1028.31
2023-02-16T02:54:47.541Z,1028.41
2023-02-16T02:55:20.428Z,1028.41
2023-02-16T02:55:51.463Z,1028.31
2023-02-16T02:56:24.446Z,1028.51
2023-02-16T02:56:55.548Z,1028.51
2023-02-16T02:57:28.212Z,1028.24
2023-02-16T02:57:59.515Z,1028.24
2023-02-16T02:58:32.240Z,1028.41
2023-02-16T02:59:03.600Z,1028.41
2023-02-16T02:59:36.342Z,1028.41
2023-02-16T03:00:08.806Z,1028.41
2023-02-16T03:00:42.350Z,1028.41
2023-02-16T03:01:11.494Z,1028.41
2023-02-16T03:01:44.539Z,1028.41
2023-02-16T03:02:15.485Z,1028.41
2023-02-16T03:02:48.253Z,1028.41
2023-02-16T03:03:19.394Z,1028.41
2023-02-16T03:03:52.395Z,1028.31
2023-02-16T03:04:23.664Z,1028.41
2023-02-16T03:04:56.244Z,1028.41
2023-02-16T03:05:27.834Z,1028.41
2023-02-16T03:06:00.301Z,1028.41
2023-02-16T03:06:31.408Z,1028.24
2023-02-16T03:07:04.327Z,1028.24
2023-02-16T03:07:35.631Z,1028.31
2023-02-16T03:08:08.370Z,1028.31
2023-02-16T03:08:39.377Z,1028.14
2023-02-16T03:09:12.240Z,1028.14
2023-02-16T03:09:43.445Z,1028.14
2023-02-16T03:10:16.433Z,1028.14
2023-02-16T03:10:47.522Z,1028.41
2023-02-16T03:11:20.353Z,1028.41
2023-02-16T03:11:51.605Z,1028.14
2023-02-16T03:12:24.236Z,1028.31
2023-02-16T03:12:55.467Z,1028.31
2023-02-16T03:13:29.369Z,1028.31
2023-02-16T03:13:59.414Z,1028.31
2023-02-16T03:14:32.285Z,1028.14
2023-02-16T03:15:04.852Z,1028.14
2023-02-16T03:15:36.210Z,1028.04
2023-02-16T03:16:07.472Z,1028.04
2023-02-16T03:16:40.348Z,1028.31
2023-02-16T03:17:11.482Z,1028.31
2023-02-16T03:17:44.156Z,1028.14
2023-02-16T03:18:15.403Z,1028.14
2023-02-16T03:18:49.256Z,1028.31
2023-02-16T03:19:19.536Z,1028.31
2023-02-16T03:19:52.117Z,1028.14
2023-02-16T03:20:23.872Z,1028.04
2023-02-16T03:20:56.313Z,1028.04
2023-02-16T03:21:27.393Z,1028.04
2023-02-16T03:22:00.321Z,1028.04
2023-02-16T03:22:31.548Z,1028.14
2023-02-16T03:23:04.345Z,1028.14
2023-02-16T03:23:35.429Z,1028.31
2023-02-16T03:24:08.466Z,1028.31
2023-02-16T03:24:39.528Z,1028.24
2023-02-16T03:25:12.640Z,1028.24
2023-02-16T03:25:43.374Z,1028.04
2023-02-16T03:26:16.278Z,1028.04
2023-02-16T03:26:47.292Z,1028.31
2023-02-16T03:27:20.296Z,1028.31
2023-02-16T03:27:51.503Z,1028.24
2023-02-16T03:28:24.556Z,1028.24
2023-02-16T03:28:55.558Z,1028.24
2023-02-16T03:29:28.179Z,1028.14
2023-02-16T03:29:59.618Z,1028.14
2023-02-16T03:30:33.633Z,1027.84
2023-02-16T03:31:03.860Z,1027.84
2023-02-16T03:31:36.469Z,1028.04
2023-02-16T03:32:07.445Z,1028.04
2023-02-16T03:32:40.246Z,1028.14
2023-02-16T03:33:11.474Z,1028.14
2023-02-16T03:33:44.362Z,1028.14
2023-02-16T03:34:15.382Z,1028.14
2023-02-16T03:34:48.216Z,1028.14
2023-02-16T03:35:19.774Z,1028.14
2023-02-16T03:35:53.192Z,1028.31
2023-02-16T03:36:23.441Z,1028.14
2023-02-16T03:36:56.488Z,1028.14
2023-02-16T03:37:27.362Z,1028.24
2023-02-16T03:38:00.210Z,1028.24
2023-02-16T03:38:31.590Z,1028.14
2023-02-16T03:39:05.182Z,1028.14
2023-02-16T03:39:35.304Z,1028.14
2023-02-16T03:40:08.770Z,1028.14
2023-02-16T03:40:39.574Z,1028.24
2023-02-16T03:41:12.241Z,1028.24
2023-02-16T03:41:43.382Z,1028.04
2023-02-16T03:42:16.589Z,1028.04
2023-02-16T03:42:47.504Z,1028.14
2023-02-16T03:43:20.183Z,1028.14
2023-02-16T03:43:51.424Z,1028.14
2023-02-16T03:44:24.469Z,1028.04
2023-02-16T03:44:55.321Z,1028.04
2023-02-16T03:45:29.553Z,1028.04
2023-02-16T03:45:59.600Z,1028.04
2023-02-16T03:46:32.596Z,1028.04
2023-02-16T03:47:03.457Z,1028.04
2023-02-16T03:47:36.243Z,1028.04
2023-02-16T03:48:07.415Z,1028.04
2023-02-16T03:48:40.164Z,1027.94
2023-02-16T03:49:11.535Z,1027.94
2023-02-16T03:49:44.315Z,1028.14
2023-02-16T03:50:15.667Z,1028.14
2023-02-16T03:50:48.214Z,1027.84
2023-02-16T03:51:19.534Z,1027.84
2023-02-16T03:51:54.382Z,1028.24
2023-02-16T03:52:23.394Z,1028.04
2023-02-16T03:52:58.332Z,1028.04
2023-02-16T03:53:27.474Z,1028.31
2023-02-16T03:54:00.402Z,1028.31
2023-02-16T03:54:31.404Z,1028.51
2023-02-16T03:55:04.734Z,1028.51
2023-02-16T03:55:35.502Z,1028.31
2023-02-16T03:56:08.330Z,1028.31
2023-02-16T03:56:39.486Z,1028.31
2023-02-16T03:57:12.338Z,1028.31
2023-02-16T03:57:43.613Z,1028.24
2023-02-16T03:58:16.387Z,1028.24
2023-02-16T03:58:47.471Z,1028.31
2023-02-16T03:59:20.306Z,1028.31
2023-02-16T03:59:51.358Z,1028.31
2023-02-16T04:00:26.025Z,1028.24
2023-02-16T04:00:55.522Z,1028.24
2023-02-16T04:01:28.297Z,1028.24
2023-02-16T04:01:59.543Z,1028.24
2023-02-16T04:02:32.416Z,1028.14
2023-02-16T04:03:03.526Z,1028.14
2023-02-16T04:03:36.367Z,1028.31
2023-02-16T04:04:07.444Z,1028.31
2023-02-16T04:04:40.211Z,1028.04
2023-02-16T04:05:11.877Z,1028.04
2023-02-16T04:05:44.283Z,1028.31
2023-02-16T04:06:15.491Z,1028.31
2023-02-16T04:06:48.456Z,1028.41
2023-02-16T04:07:19.438Z,1028.41
2023-02-16T04:07:52.381Z,1028.31
2023-02-16T04:08:23.575Z,1028.31
2023-02-16T04:08:56.415Z,1028.31
2023-02-16T04:09:27.481Z,1028.31
2023-02-16T04:10:00.738Z,1028.31
2023-02-16T04:10:31.617Z,1028.41
2023-02-16T04:11:04.552Z,1028.41
2023-02-16T04:11:35.524Z,1028.14
2023-02-16T04:12:08.468Z,1028.14
2023-02-16T04:12:39.528Z,1028.31
2023-02-16T04:13:12.467Z,1028.31
2023-02-16T04:13:43.566Z,1028.31
2023-02-16T04:14:17.389Z,1028.31
2023-02-16T04:14:47.369Z,1028.41
2023-02-16T04:15:21.381Z,1028.41
2023-02-16T04:15:51.643Z,1028.31
2023-02-16T04:16:24.547Z,1028.31
2023-02-16T04:16:55.610Z,1028.31
2023-02-16T04:17:28.527Z,1028.24
2023-02-16T04:17:59.577Z,1028.24
2023-02-16T04:18:32.986Z,1028.31
2023-02-16T04:19:03.472Z,1028.31
2023-02-16T04:19:36.614Z,1028.31
2023-02-16T04:20:07.504Z,1028.31
2023-02-16T04:20:40.425Z,1028.41
2023-02-16T04:21:11.548Z,1028.41
2023-02-16T04:21:44.454Z,1028.51
2023-02-16T04:22:18.074Z,1028.51
2023-02-16T04:22:48.617Z,1028.61
2023-02-16T04:23:19.459Z,1028.61
2023-02-16T04:23:52.253Z,1028.31
2023-02-16T04:24:23.522Z,1028.41
2023-02-16T04:24:56.292Z,1028.41
2023-02-16T04:25:27.940Z,1028.51
2023-02-16T04:26:00.341Z,1028.51
2023-02-16T04:26:31.592Z,1028.31
2023-02-16T04:27:04.481Z,1028.31
2023-02-16T04:27:35.365Z,1028.31
2023-02-16T04:28:08.341Z,1028.31
2023-02-16T04:28:39.630Z,1028.41
2023-02-16T04:29:12.357Z,1028.41
2023-02-16T04:29:43.536Z,1028.41
2023-02-16T04:30:17.418Z,1028.41
2023-02-16T04:30:47.867Z,1028.41
2023-02-16T04:31:20.413Z,1028.41
2023-02-16T04:31:51.664Z,1028.41
2023-02-16T04:32:24.396Z,1028.24
2023-02-16T04:32:55.395Z,1028.24
2023-02-16T04:33:28.432Z,1028.41
2023-02-16T04:33:59.447Z,1028.41
2023-02-16T04:34:32.311Z,1028.51
2023-02-16T04:35:03.682Z,1028.51
2023-02-16T04:35:36.448Z,1028.51
2023-02-16T04:36:07.505Z,1028.51
2023-02-16T04:36:40.274Z,1028.41
2023-02-16T04:37:11.432Z,1028.41
2023-02-16T04:37:44.416Z,1028.24
2023-02-16T04:38:15.968Z,1028.24
2023-02-16T04:38:48.458Z,1028.24
2023-02-16T04:39:19.590Z,1028.24
2023-02-16T04:39:52.379Z,1028.51
2023-02-16T04:40:23.800Z,1028.51
2023-02-16T04:40:56.306Z,1028.51
2023-02-16T04:41:27.687Z,1028.31
2023-02-16T04:42:00.543Z,1028.31
2023-02-16T04:42:31.491Z,1028.31
2023-02-16T04:43:04.506Z,1028.31
2023-02-16T04:43:35.624Z,1028.14
2023-02-16T04:44:08.210Z,1028.14
2023-02-16T04:44:39.492Z,1028.31
2023-02-16T04:45:13.253Z,1028.31
2023-02-16T04:45:43.613Z,1028.31
2023-02-16T04:46:17.151Z,1028.31
2023-02-16T04:46:47.597Z,1028.41
2023-02-16T04:47:20.394Z,1028.41
2023-02-16T04:47:51.395Z,1028.24
2023-02-16T04:48:24.281Z,1028.31
2023-02-16T04:48:55.550Z,1028.31
2023-02-16T04:49:28.336Z,1028.14
2023-02-16T04:49:59.490Z,1028.14
2023-02-16T04:50:16.017Z,1028.14
2023-02-16T04:50:47.410Z,1028.51
2023-02-16T04:51:19.416Z,1028.51
2023-02-16T04:51:51.514Z,1028.31
2023-02-16T04:52:23.368Z,1028.24
2023-02-16T04:52:56.479Z,1028.24
2023-02-16T04:53:27.514Z,1028.24
2023-02-16T04:54:00.590Z,1028.24
2023-02-16T04:54:31.387Z,1028.41
2023-02-16T04:55:04.595Z,1028.41
2023-02-16T04:55:35.584Z,1028.41
2023-02-16T04:56:09.153Z,1028.41
2023-02-16T04:56:39.539Z,1028.41
2023-02-16T04:57:12.523Z,1028.41
2023-02-16T04:57:43.615Z,1028.31
2023-02-16T04:58:16.190Z,1028.31
2023-02-16T04:58:47.472Z,1028.24
2023-02-16T04:59:20.173Z,1028.24
2023-02-16T04:59:51.615Z,1028.31
2023-02-16T05:00:25.354Z,1028.31
2023-02-16T05:00:55.626Z,1028.31
2023-02-16T05:01:28.563Z,1028.24
2023-02-16T05:01:59.429Z,1028.24
2023-02-16T05:02:32.373Z,1028.14
2023-02-16T05:03:03.554Z,1028.14
2023-02-16T05:03:36.481Z,1028.31
2023-02-16T05:04:07.452Z,1028.31
2023-02-16T05:04:40.354Z,1028.41
2023-02-16T05:05:11.644Z,1028.41
2023-02-16T05:05:44.237Z,1028.24
2023-02-16T05:06:15.478Z,1028.24
2023-02-16T05:06:48.374Z,1028.24
2023-02-16T05:07:19.438Z,1028.24
2023-02-16T05:07:52.346Z,1028.24
2023-02-16T05:08:23.467Z,1028.31
2023-02-16T05:08:56.100Z,1028.31
2023-02-16T05:09:27.502Z,1028.31
2023-02-16T05:10:00.774Z,1028.31
2023-02-16T05:10:31.371Z,1028.41
2023-02-16T05:11:04.409Z,1028.41
2023-02-16T05:11:35.499Z,1028.31
2023-02-16T05:12:08.427Z,1028.31
2023-02-16T05:12:39.537Z,1028.31
2023-02-16T05:13:12.244Z,1028.31
2023-02-16T05:13:43.459Z,1028.24
2023-02-16T05:14:16.520Z,1028.24
2023-02-16T05:14:47.431Z,1028.31
2023-02-16T05:15:21.413Z,1028.31
2023-02-16T05:15:51.715Z,1028.31
2023-02-16T05:16:24.305Z,1028.41
2023-02-16T05:16:55.480Z,1028.41
2023-02-16T05:17:28.447Z,1028.51
2023-02-16T05:17:59.612Z,1028.51
2023-02-16T05:18:32.087Z,1028.41
2023-02-16T05:19:03.579Z,1028.41
2023-02-16T05:19:36.308Z,1028.24
2023-02-16T05:20:07.630Z,1028.24
2023-02-16T05:20:40.250Z,1028.24
2023-02-16T05:21:11.554Z,1028.24
2023-02-16T05:21:44.415Z,1028.41
2023-02-16T05:22:15.484Z,1028.41
2023-02-16T05:22:48.400Z,1028.04
2023-02-16T05:23:19.640Z,1028.04
2023-02-16T05:23:53.973Z,1028.41
2023-02-16T05:24:23.421Z,1028.31
2023-02-16T05:24:56.470Z,1028.31
2023-02-16T05:25:27.797Z,1028.41
2023-02-16T05:26:00.073Z,1028.41
2023-02-16T05:26:31.589Z,1028.31
2023-02-16T05:27:04.586Z,1028.31
2023-02-16T05:27:35.404Z,1028.51
2023-02-16T05:28:09.288Z,1028.51
2023-02-16T05:28:39.640Z,1028.51
2023-02-16T05:29:13.423Z,1028.51
2023-02-16T05:29:43.448Z,1028.41
2023-02-16T05:30:17.403Z,1028.41
2023-02-16T05:30:47.747Z,1028.14
2023-02-16T05:31:20.376Z,1028.14
2023-02-16T05:31:51.726Z,1028.41
2023-02-16T05:32:26.167Z,1028.41
2023-02-16T05:32:55.663Z,1028.41
2023-02-16T05:33:28.250Z,1028.41
2023-02-16T05:33:59.444Z,1028.41
2023-02-16T05:34:33.383Z,1028.31
2023-02-16T05:35:03.746Z,1028.31
2023-02-16T05:35:36.211Z,1028.31
2023-02-16T05:36:07.588Z,1028.31
2023-02-16T05:36:40.427Z,1028.41
2023-02-16T05:37:11.429Z,1028.41
2023-02-16T05:37:44.244Z,1028.51
2023-02-16T05:38:15.962Z,1028.51
2023-02-16T05:38:48.189Z,1028.41
2023-02-16T05:39:19.494Z,1028.41
2023-02-16T05:39:52.367Z,1028.31
2023-02-16T05:40:23.648Z,1028.41
2023-02-16T05:40:56.318Z,1028.41
2023-02-16T05:41:27.522Z,1028.24
2023-02-16T05:42:00.363Z,1028.24
2023-02-16T05:42:31.451Z,1028.31
2023-02-16T05:43:04.375Z,1028.31
2023-02-16T05:43:35.470Z,1028.51
2023-02-16T05:44:08.483Z,1028.51
2023-02-16T05:44:39.462Z,1028.24
2023-02-16T05:45:13.229Z,1028.24
2023-02-16T05:45:43.679Z,1028.41
2023-02-16T05:46:16.402Z,1028.41
2023-02-16T05:46:47.627Z,1028.61
2023-02-16T05:47:20.325Z,1028.61
2023-02-16T05:47:51.352Z,1028.61
2023-02-16T05:48:24.400Z,1028.41
2023-02-16T05:48:55.591Z,1028.41
2023-02-16T05:49:28.351Z,1028.41
2023-02-16T05:49:59.480Z,1028.41
2023-02-16T05:50:15.950Z,1028.41
2023-02-16T05:50:47.429Z,1028.41
2023-02-16T05:51:19.493Z,1028.41
2023-02-16T05:51:51.560Z,1028.31
2023-02-16T05:52:23.663Z,1028.51
2023-02-16T05:52:55.449Z,1028.51
2023-02-16T05:53:27.513Z,1028.31
2023-02-16T05:53:59.623Z,1028.31
2023-02-16T05:54:31.478Z,1028.41
2023-02-16T05:55:04.653Z,1028.41
2023-02-16T05:55:35.673Z,1028.41
2023-02-16T05:56:08.439Z,1028.41
2023-02-16T05:56:39.534Z,1028.31
2023-02-16T05:57:12.386Z,1028.31
2023-02-16T05:57:43.589Z,1028.41
2023-02-16T05:58:16.383Z,1028.41
2023-02-16T05:58:47.552Z,1028.41
2023-02-16T05:59:20.376Z,1028.41
2023-02-16T05:59:51.297Z,1028.72
2023-02-16T06:00:25.585Z,1028.51
2023-02-16T06:00:55.590Z,1028.51
2023-02-16T06:01:28.123Z,1028.24
2023-02-16T06:01:59.439Z,1028.24
2023-02-16T06:02:33.262Z,1028.31
2023-02-16T06:03:03.611Z,1028.31
2023-02-16T06:03:36.389Z,1028.41
2023-02-16T06:04:07.544Z,1028.41
2023-02-16T06:04:40.479Z,1028.51
2023-02-16T06:05:11.727Z,1028.51
2023-02-16T06:05:44.579Z,1028.41
2023-02-16T06:06:15.594Z,1028.41
2023-02-16T06:06:48.534Z,1028.41
2023-02-16T06:07:19.435Z,1028.41
2023-02-16T06:07:52.602Z,1028.41
2023-02-16T06:08:23.606Z,1028.61
2023-02-16T06:08:56.459Z,1028.61
2023-02-16T06:09:27.488Z,1028.51
2023-02-16T06:10:00.750Z,1028.51
2023-02-16T06:10:31.599Z,1028.51
2023-02-16T06:11:05.690Z,1028.51
2023-02-16T06:11:35.546Z,1028.61
2023-02-16T06:12:08.544Z,1028.61
2023-02-16T06:12:39.471Z,1028.82
2023-02-16T06:13:12.413Z,1028.82
2023-02-16T06:13:43.515Z,1028.61
2023-02-16T06:14:16.458Z,1028.61
2023-02-16T06:14:47.420Z,1028.72
2023-02-16T06:15:21.475Z,1028.72
2023-02-16T06:15:51.707Z,1028.72
2023-02-16T06:16:24.213Z,1028.82
2023-02-16T06:16:55.536Z,1028.82
2023-02-16T06:17:28.623Z,1028.61
2023-02-16T06:17:59.680Z,1028.61
2023-02-16T06:18:32.161Z,1028.72
2023-02-16T06:19:03.520Z,1028.72
2023-02-16T06:19:38.327Z,1028.82
2023-02-16T06:20:07.651Z,1028.82
2023-02-16T06:20:40.524Z,1028.72
2023-02-16T06:21:11.449Z,1028.72
2023-02-16T06:21:44.289Z,1028.72
2023-02-16T06:22:15.483Z,1028.72
2023-02-16T06:22:48.617Z,1028.61
2023-02-16T06:23:19.561Z,1028.61
2023-02-16T06:23:52.236Z,1028.72
2023-02-16T06:24:23.499Z,1028.92
2023-02-16T06:24:56.415Z,1028.92
2023-02-16T06:25:27.968Z,1028.51